Wellington, Ohio
Current Conditions -  °F | °C
As of 9:30 PM on Tuesday 21 Oct 2014 (Local Time) from KLPR Reporting Station
Light Rain Light Rain  
Wind Chill: 42°   Ceiling: 1600
Heat Index: 47°   Visibility: 8mi
Dew Point: 44°   Wind: 12mph
Humidity: 90%   Direction: 10°N
Pressure: 30.11"   Gusts: NA
Location:  41.17°N, 82.22°W
Report Text: KLPR 220130Z AUTO 01010KT 8SM -RA BKN016 OVC020 08/07 A3011 RMK AO2 P0001 T00830067 TSNO
Loading
Personal Weather Stations






























Interactive Weather Map
Tropical Storm Tracking
New forecast layout! Learn more

10-Day Weather Forecast

Advertisements
Track Severe Weather on mobile